Time;durP1;ratioP1;P1;durP2;ratioP2;P2;SDS_P1;SDS_P2;PMS_P1;PMS_P2;Temp;Humidity;BMP_temperature;BMP_pressure;BME280_temperature;BME280_humidity;BME280_pressure;Samples;Min_cycle;Max_cycle;Signal;HPM_P1;HPM_P2
2021/05/04 00:00:43;;;;;;;12.75;11.55;;;7.00;99.90;;;;;;5051586;28;20045;-69
2021/05/04 00:03:14;;;;;;;12.50;11.27;;;7.00;99.90;;;;;;5050794;28;20079;-69
2021/05/04 00:05:41;;;;;;;13.38;12.05;;;7.00;99.90;;;;;;5040244;28;20053;-69
2021/05/04 00:08:09;;;;;;;16.48;12.38;;;7.10;99.90;;;;;;5049848;28;20417;-69
2021/05/04 00:10:37;;;;;;;16.02;14.30;;;7.00;99.90;;;;;;5050996;28;20045;-69
2021/05/04 00:13:05;;;;;;;16.77;14.82;;;7.00;99.90;;;;;;5050455;28;20095;-69
2021/05/04 00:15:33;;;;;;;13.25;11.90;;;7.10;99.90;;;;;;5052018;28;20411;-69
2021/05/04 00:18:01;;;;;;;12.85;11.57;;;7.10;99.90;;;;;;5048753;28;20128;-69
2021/05/04 00:20:29;;;;;;;13.18;11.55;;;7.10;99.90;;;;;;5038476;28;20051;-68
2021/05/04 00:22:56;;;;;;;14.93;12.30;;;7.00;99.90;;;;;;5051010;28;20144;-69
2021/05/04 00:25:24;;;;;;;12.77;11.50;;;7.00;99.90;;;;;;5050898;28;20059;-69
2021/05/04 00:27:52;;;;;;;12.88;11.48;;;7.00;99.90;;;;;;5048459;28;20053;-70
2021/05/04 00:30:20;;;;;;;16.38;12.90;;;6.90;99.90;;;;;;5048649;28;20041;-69
2021/05/04 00:32:47;;;;;;;13.40;12.02;;;6.90;99.90;;;;;;5032943;28;20495;-69
2021/05/04 00:35:15;;;;;;;12.90;11.27;;;6.90;99.90;;;;;;5014308;28;20040;-69
2021/05/04 00:37:43;;;;;;;17.88;12.45;;;6.90;99.90;;;;;;5044832;28;20045;-68
2021/05/04 00:40:11;;;;;;;13.18;11.98;;;7.00;99.90;;;;;;5052886;28;20051;-69
2021/05/04 00:42:41;;;;;;;12.90;11.70;;;7.00;99.90;;;;;;5051212;28;20044;-69
2021/05/04 00:45:20;;;;;;;13.00;11.73;;;6.90;99.90;;;;;;5034513;28;20067;-70
2021/05/04 00:47:48;;;;;;;14.35;12.85;;;6.90;99.90;;;;;;5053135;28;20060;-70
2021/05/04 00:50:15;;;;;;;12.88;11.48;;;6.90;99.90;;;;;;5037153;28;20044;-69
2021/05/04 00:52:44;;;;;;;13.35;11.95;;;6.90;99.90;;;;;;5054947;28;20044;-69
2021/05/04 00:55:14;;;;;;;13.02;11.82;;;6.90;99.90;;;;;;5055266;28;20048;-69
2021/05/04 00:57:43;;;;;;;14.60;12.27;;;7.00;99.90;;;;;;5051982;28;20049;-69
2021/05/04 01:00:12;;;;;;;13.45;12.10;;;7.00;99.90;;;;;;5033851;28;20053;-69
2021/05/04 01:02:41;;;;;;;14.02;12.52;;;7.10;99.90;;;;;;5053000;28;20136;-70
2021/05/04 01:05:10;;;;;;;21.77;16.92;;;7.00;99.90;;;;;;5035311;28;20065;-69
2021/05/04 01:07:38;;;;;;;16.58;13.50;;;7.10;99.90;;;;;;5052942;28;20052;-68
2021/05/04 01:10:06;;;;;;;14.23;12.82;;;7.10;99.90;;;;;;5052990;28;20519;-69
2021/05/04 01:12:35;;;;;;;13.50;12.13;;;7.10;99.90;;;;;;5054862;28;20045;-68
2021/05/04 01:15:04;;;;;;;12.75;11.50;;;7.20;99.90;;;;;;5037038;28;20047;-70
2021/05/04 01:17:32;;;;;;;13.48;12.07;;;7.20;99.90;;;;;;5054630;28;20056;-70
2021/05/04 01:20:09;;;;;;;13.75;12.35;;;7.10;99.90;;;;;;5052771;28;20053;-70
2021/05/04 01:22:38;;;;;;;13.80;12.40;;;7.10;99.90;;;;;;5037657;28;20103;-69
2021/05/04 01:25:15;;;;;;;13.73;12.32;;;7.20;99.90;;;;;;5053514;28;20048;-69
2021/05/04 01:27:43;;;;;;;13.38;12.07;;;7.10;99.90;;;;;;5047233;28;20058;-69
2021/05/04 01:30:11;;;;;;;13.50;12.10;;;7.20;99.90;;;;;;5054119;28;20754;-69
2021/05/04 01:32:38;;;;;;;13.27;11.98;;;7.30;99.90;;;;;;5051673;28;20814;-68
2021/05/04 01:35:09;;;;;;;12.80;11.50;;;7.30;99.90;;;;;;5035004;28;20033;-69
2021/05/04 01:37:37;;;;;;;15.25;12.57;;;7.40;99.90;;;;;;5050942;28;20137;-69
2021/05/04 01:40:09;;;;;;;13.63;12.10;;;7.40;99.90;;;;;;5052588;28;20106;-70
2021/05/04 01:42:36;;;;;;;14.38;12.77;;;7.40;99.90;;;;;;5051114;28;20060;-69
2021/05/04 01:45:04;;;;;;;13.73;12.43;;;7.40;99.90;;;;;;5052506;28;20094;-69
2021/05/04 01:47:32;;;;;;;13.32;12.07;;;7.40;99.90;;;;;;5041622;28;20057;-69
2021/05/04 01:50:02;;;;;;;19.55;12.55;;;7.30;99.90;;;;;;5053853;28;20047;-69
2021/05/04 01:52:32;;;;;;;13.82;12.30;;;7.30;99.90;;;;;;5051567;28;20044;-68
2021/05/04 01:55:01;;;;;;;12.88;11.57;;;7.30;99.90;;;;;;5052347;28;20041;-69
2021/05/04 01:57:28;;;;;;;13.25;11.98;;;7.20;99.90;;;;;;5050641;28;20099;-69
2021/05/04 01:59:56;;;;;;;13.20;11.90;;;7.20;99.90;;;;;;5053254;28;20079;-68
2021/05/04 02:02:24;;;;;;;13.52;12.13;;;7.10;99.90;;;;;;5052963;28;20051;-69
2021/05/04 02:04:53;;;;;;;14.75;12.27;;;7.10;99.90;;;;;;5051441;28;20048;-69
2021/05/04 02:07:20;;;;;;;14.13;12.82;;;7.10;99.90;;;;;;5041568;28;20107;-69
2021/05/04 02:09:48;;;;;;;14.68;12.15;;;7.10;99.90;;;;;;5053088;28;20041;-69
2021/05/04 02:12:15;;;;;;;13.38;12.07;;;7.10;99.90;;;;;;5033467;28;20083;-69
2021/05/04 02:14:44;;;;;;;13.15;11.85;;;7.10;99.90;;;;;;5052671;28;20116;-68
2021/05/04 02:17:11;;;;;;;13.07;11.77;;;7.20;99.90;;;;;;5051318;28;20118;-68
2021/05/04 02:19:40;;;;;;;13.30;12.00;;;7.10;99.90;;;;;;5052318;28;20091;-69
2021/05/04 02:22:08;;;;;;;13.70;12.23;;;7.10;99.90;;;;;;5034100;28;20029;-69
2021/05/04 02:24:35;;;;;;;13.68;12.23;;;7.20;99.90;;;;;;5049663;28;20060;-69
2021/05/04 02:27:02;;;;;;;14.43;11.95;;;7.10;99.90;;;;;;5050117;28;20122;-69
2021/05/04 02:29:29;;;;;;;13.05;11.38;;;7.10;99.90;;;;;;5051662;28;20048;-68
2021/05/04 02:32:11;;;;;;;15.67;12.47;;;7.10;99.90;;;;;;5051466;28;20061;-69
2021/05/04 02:34:38;;;;;;;13.20;11.70;;;7.00;99.90;;;;;;5051408;28;20049;-68
2021/05/04 02:37:05;;;;;;;13.60;12.20;;;7.10;99.90;;;;;;5052637;28;20037;-69
2021/05/04 02:39:32;;;;;;;15.07;12.05;;;7.10;99.90;;;;;;5056087;28;20443;-69
2021/05/04 02:41:59;;;;;;;13.82;12.43;;;7.10;99.90;;;;;;5057282;28;20056;-69
2021/05/04 02:44:26;;;;;;;17.27;12.75;;;7.10;99.90;;;;;;5053318;28;20064;-69
2021/05/04 02:46:53;;;;;;;13.38;12.15;;;7.10;99.90;;;;;;5052449;28;20448;-69
2021/05/04 02:49:20;;;;;;;12.75;11.65;;;7.00;99.90;;;;;;5045321;28;20046;-70
2021/05/04 02:51:47;;;;;;;13.45;12.05;;;7.00;99.90;;;;;;5052010;28;20048;-69
2021/05/04 02:54:14;;;;;;;13.70;12.40;;;7.00;99.90;;;;;;5050565;28;20049;-68
2021/05/04 02:56:40;;;;;;;14.00;12.60;;;7.00;99.90;;;;;;5051207;28;20049;-69
2021/05/04 02:59:07;;;;;;;13.57;12.27;;;7.00;99.90;;;;;;5052538;28;20130;-68
2021/05/04 03:01:34;;;;;;;15.80;12.23;;;6.90;99.90;;;;;;5052009;28;20048;-69
2021/05/04 03:04:01;;;;;;;13.98;12.57;;;6.90;99.90;;;;;;5048940;28;20049;-68
2021/05/04 03:06:29;;;;;;;14.43;13.02;;;6.80;99.90;;;;;;5050221;28;20095;-69
2021/05/04 03:08:57;;;;;;;12.95;11.57;;;6.90;99.90;;;;;;5049965;28;20051;-69
2021/05/04 03:11:25;;;;;;;13.82;12.48;;;6.90;99.90;;;;;;5051291;28;20141;-69
2021/05/04 03:13:51;;;;;;;14.20;12.68;;;6.90;99.90;;;;;;5050800;28;20126;-69
2021/05/04 03:16:18;;;;;;;14.13;12.82;;;6.90;99.90;;;;;;5051703;28;20617;-69
2021/05/04 03:18:45;;;;;;;14.05;12.73;;;6.90;99.90;;;;;;5050044;28;20048;-69
2021/05/04 03:21:12;;;;;;;15.45;12.68;;;6.80;99.90;;;;;;5050598;28;20529;-68
2021/05/04 03:23:39;;;;;;;13.30;11.90;;;6.80;99.90;;;;;;5051669;28;20488;-69
2021/05/04 03:26:06;;;;;;;13.93;12.63;;;6.80;99.90;;;;;;5049479;28;20385;-69
2021/05/04 03:28:33;;;;;;;13.77;12.48;;;6.70;99.90;;;;;;5050077;28;20621;-69
2021/05/04 03:31:00;;;;;;;14.27;12.77;;;6.70;99.90;;;;;;5044675;28;20128;-69
2021/05/04 03:33:27;;;;;;;13.65;12.35;;;6.70;99.90;;;;;;5048513;28;20099;-69
2021/05/04 03:35:54;;;;;;;13.73;12.25;;;6.60;99.90;;;;;;5039022;28;20045;-69
2021/05/04 03:38:21;;;;;;;13.90;12.48;;;6.50;99.90;;;;;;5049896;28;20061;-69
2021/05/04 03:40:48;;;;;;;14.52;13.02;;;6.50;99.90;;;;;;5059290;28;20098;-69
2021/05/04 03:43:15;;;;;;;13.75;12.30;;;6.60;99.90;;;;;;5051758;28;20056;-69
2021/05/04 03:45:42;;;;;;;13.57;12.18;;;6.50;99.90;;;;;;5050521;28;20479;-69
2021/05/04 03:48:09;;;;;;;13.82;12.52;;;6.50;99.90;;;;;;5051373;28;20137;-69
2021/05/04 03:50:36;;;;;;;14.38;12.93;;;6.40;99.90;;;;;;5048970;28;20084;-69
2021/05/04 03:53:03;;;;;;;14.02;12.52;;;6.40;99.90;;;;;;5033451;28;20061;-69
2021/05/04 03:55:30;;;;;;;13.85;12.43;;;6.40;99.90;;;;;;5047508;28;20084;-69
2021/05/04 03:57:57;;;;;;;13.98;12.57;;;6.30;99.90;;;;;;5049035;28;20106;-69
2021/05/04 04:00:24;;;;;;;13.73;12.43;;;6.30;99.90;;;;;;5049503;28;20063;-68
2021/05/04 04:02:52;;;;;;;12.93;11.65;;;6.30;99.90;;;;;;5049201;28;20495;-69
2021/05/04 04:05:19;;;;;;;13.23;11.93;;;6.40;99.90;;;;;;5039909;28;20044;-69
2021/05/04 04:07:46;;;;;;;14.02;12.50;;;6.30;99.90;;;;;;5036668;28;20088;-69
2021/05/04 04:10:13;;;;;;;13.68;12.25;;;6.30;99.90;;;;;;5049205;28;20072;-68
2021/05/04 04:12:40;;;;;;;12.88;11.68;;;6.40;99.90;;;;;;5049924;28;20128;-69
2021/05/04 04:15:08;;;;;;;14.52;13.02;;;6.50;99.90;;;;;;5049418;28;20056;-68
2021/05/04 04:17:35;;;;;;;13.80;12.50;;;6.50;99.90;;;;;;5049139;28;20057;-69
2021/05/04 04:20:04;;;;;;;14.13;12.70;;;6.50;99.90;;;;;;5048773;28;20064;-69
2021/05/04 04:22:31;;;;;;;14.15;12.45;;;6.60;99.90;;;;;;5047604;28;20057;-68
2021/05/04 04:24:59;;;;;;;13.73;12.27;;;6.70;99.90;;;;;;5045621;28;20134;-69
2021/05/04 04:27:26;;;;;;;14.25;12.60;;;6.80;99.90;;;;;;5045447;28;20064;-69
2021/05/04 04:29:53;;;;;;;14.32;12.82;;;6.80;99.90;;;;;;5043448;28;20518;-69
2021/05/04 04:32:20;;;;;;;13.70;12.05;;;6.90;99.90;;;;;;5048717;28;20102;-69
2021/05/04 04:34:49;;;;;;;14.10;12.50;;;6.90;99.90;;;;;;5028357;28;20445;-69
2021/05/04 04:37:16;;;;;;;14.70;13.30;;;7.00;99.90;;;;;;5041515;28;20057;-68
2021/05/04 04:39:43;;;;;;;14.48;12.98;;;7.10;99.90;;;;;;5049897;28;20415;-69
2021/05/04 04:42:10;;;;;;;14.80;13.25;;;7.10;99.90;;;;;;5050161;28;20057;-69
2021/05/04 04:44:37;;;;;;;14.68;13.18;;;7.20;99.90;;;;;;5051337;28;20411;-68
2021/05/04 04:47:06;;;;;;;17.00;12.73;;;7.30;99.90;;;;;;5049813;28;20609;-69
2021/05/04 04:49:35;;;;;;;14.30;12.90;;;7.40;99.90;;;;;;5050755;28;20056;-68
2021/05/04 04:52:02;;;;;;;15.52;13.85;;;7.50;99.90;;;;;;5053238;28;20053;-70
2021/05/04 04:54:32;;;;;;;14.38;12.70;;;7.50;99.90;;;;;;5051339;28;20579;-69
2021/05/04 04:57:00;;;;;;;13.93;12.55;;;7.70;99.90;;;;;;5042765;28;20060;-69
2021/05/04 04:59:28;;;;;;;14.20;12.65;;;7.80;99.90;;;;;;5050410;28;20419;-69
2021/05/04 05:01:55;;;;;;;13.07;11.80;;;7.90;99.90;;;;;;5047735;28;20045;-68
2021/05/04 05:04:23;;;;;;;13.68;12.38;;;8.00;99.90;;;;;;5048723;28;20103;-68
2021/05/04 05:06:51;;;;;;;13.73;12.27;;;8.10;99.90;;;;;;5046895;28;20524;-68
2021/05/04 05:09:18;;;;;;;14.32;12.85;;;8.30;99.90;;;;;;5049299;28;20511;-69
2021/05/04 05:11:44;;;;;;;14.07;12.68;;;8.40;99.90;;;;;;5031895;28;20049;-69
2021/05/04 05:14:11;;;;;;;14.30;13.00;;;8.50;99.90;;;;;;5049246;28;20091;-69
2021/05/04 05:16:38;;;;;;;14.80;13.15;;;8.60;99.90;;;;;;5046305;28;20048;-69
2021/05/04 05:19:06;;;;;;;14.35;13.05;;;8.60;99.90;;;;;;5038894;28;20590;-68
2021/05/04 05:21:36;;;;;;;14.50;13.10;;;8.80;99.90;;;;;;5049065;28;20469;-68
2021/05/04 05:24:04;;;;;;;15.48;12.80;;;8.90;99.90;;;;;;5038350;28;20413;-69
2021/05/04 05:26:31;;;;;;;14.85;13.32;;;9.00;99.90;;;;;;5049513;28;20056;-68
2021/05/04 05:28:58;;;;;;;14.10;12.80;;;9.10;99.90;;;;;;5049161;28;20466;-68
2021/05/04 05:31:28;;;;;;;14.10;12.70;;;9.10;99.90;;;;;;5049530;28;20079;-68
2021/05/04 05:33:55;;;;;;;16.13;13.38;;;9.30;99.90;;;;;;5053168;28;20469;-69
2021/05/04 05:36:22;;;;;;;14.65;13.15;;;9.30;99.90;;;;;;5052595;28;20076;-68
2021/05/04 05:38:49;;;;;;;15.73;14.10;;;9.40;99.90;;;;;;5054067;28;20458;-69
2021/05/04 05:41:16;;;;;;;14.60;13.20;;;9.50;99.90;;;;;;5056437;28;20132;-70
2021/05/04 05:43:43;;;;;;;13.98;12.57;;;9.60;99.90;;;;;;5053152;28;20041;-69
2021/05/04 05:46:10;;;;;;;13.93;12.48;;;9.70;99.90;;;;;;5051992;28;20051;-69
2021/05/04 05:48:37;;;;;;;14.55;13.07;;;9.70;99.90;;;;;;5050401;28;20529;-69
2021/05/04 05:51:09;;;;;;;14.07;12.75;;;9.80;99.90;;;;;;5053844;28;20049;-69
2021/05/04 05:53:36;;;;;;;14.02;12.73;;;9.90;99.90;;;;;;5052389;28;20064;-69
2021/05/04 05:56:04;;;;;;;14.15;12.85;;;10.00;99.90;;;;;;5053461;28;20045;-69
2021/05/04 05:58:32;;;;;;;16.20;13.23;;;10.10;99.90;;;;;;5044527;28;20045;-69
2021/05/04 06:00:59;;;;;;;13.68;12.38;;;10.10;99.90;;;;;;5054177;28;20063;-69
2021/05/04 06:03:28;;;;;;;13.50;11.77;;;10.10;99.90;;;;;;5053348;28;20080;-69
2021/05/04 06:05:55;;;;;;;13.38;12.18;;;10.20;99.90;;;;;;5047380;28;20132;-69
2021/05/04 06:08:23;;;;;;;13.05;11.88;;;10.30;99.90;;;;;;5050784;28;20122;-69
2021/05/04 06:10:51;;;;;;;13.32;12.05;;;10.40;99.90;;;;;;5052429;28;20045;-69
2021/05/04 06:13:19;;;;;;;14.02;12.20;;;10.40;99.90;;;;;;5052090;28;20583;-69
2021/05/04 06:15:46;;;;;;;13.40;12.18;;;10.50;99.90;;;;;;5037370;28;20124;-68
2021/05/04 06:18:14;;;;;;;14.95;12.95;;;10.50;99.90;;;;;;5050901;28;20050;-70
2021/05/04 06:20:41;;;;;;;13.07;11.98;;;10.50;99.90;;;;;;5052088;28;20047;-70
2021/05/04 06:23:08;;;;;;;13.48;12.30;;;10.60;99.90;;;;;;5044144;28;20053;-69
2021/05/04 06:25:36;;;;;;;12.85;11.68;;;10.70;99.90;;;;;;5045294;28;20060;-69
2021/05/04 06:28:06;;;;;;;13.52;12.32;;;10.70;99.90;;;;;;5048248;28;20450;-69
2021/05/04 06:30:36;;;;;;;12.25;11.18;;;10.80;99.90;;;;;;5052316;28;20045;-69
2021/05/04 06:33:05;;;;;;;11.82;10.52;;;10.80;99.90;;;;;;5051255;28;20041;-68
2021/05/04 06:35:35;;;;;;;12.68;11.45;;;10.90;99.90;;;;;;5051227;28;20136;-69
2021/05/04 06:38:03;;;;;;;12.48;11.18;;;10.90;99.90;;;;;;5070910;28;20085;-69
2021/05/04 06:40:31;;;;;;;12.45;11.07;;;10.90;99.90;;;;;;5053221;28;20074;-69
2021/05/04 06:42:58;;;;;;;12.48;11.38;;;11.00;99.90;;;;;;5051858;28;20075;-69
2021/05/04 06:45:26;;;;;;;12.93;11.57;;;10.90;99.90;;;;;;5052672;28;20495;-70
2021/05/04 06:47:53;;;;;;;12.25;11.05;;;11.00;99.90;;;;;;5050537;28;20098;-69
2021/05/04 06:50:21;;;;;;;12.57;11.13;;;11.00;99.90;;;;;;5055053;28;20507;-69
2021/05/04 06:52:48;;;;;;;12.18;11.07;;;11.00;99.90;;;;;;5052627;28;20049;-70
2021/05/04 06:55:15;;;;;;;12.75;11.52;;;11.00;99.90;;;;;;5051011;28;20040;-69
2021/05/04 06:57:42;;;;;;;11.98;10.93;;;11.10;99.90;;;;;;5049759;28;20106;-69
2021/05/04 07:00:09;;;;;;;12.23;11.02;;;11.30;99.90;;;;;;5043072;28;20048;-69
2021/05/04 07:02:37;;;;;;;11.88;10.85;;;11.30;99.90;;;;;;5040539;28;20411;-69
2021/05/04 07:05:04;;;;;;;12.48;11.27;;;11.40;99.90;;;;;;5038080;28;20447;-70
2021/05/04 07:07:31;;;;;;;12.23;10.93;;;11.50;99.90;;;;;;5043136;28;20069;-69
2021/05/04 07:10:00;;;;;;;13.45;10.88;;;11.50;99.90;;;;;;5048753;28;21232;-70
2021/05/04 07:12:28;;;;;;;13.20;11.15;;;11.70;99.90;;;;;;5049896;28;20048;-70
2021/05/04 07:14:55;;;;;;;12.52;10.68;;;11.70;99.90;;;;;;5052965;28;20049;-70
2021/05/04 07:17:24;;;;;;;12.40;11.23;;;11.70;99.90;;;;;;5050243;28;20131;-69
2021/05/04 07:19:54;;;;;;;12.15;10.95;;;11.70;99.90;;;;;;5050495;28;20136;-69
2021/05/04 07:22:24;;;;;;;12.35;11.15;;;12.00;99.90;;;;;;5051995;28;20060;-69
2021/05/04 07:24:52;;;;;;;11.65;10.52;;;12.00;99.90;;;;;;5055096;28;20068;-69
2021/05/04 07:27:19;;;;;;;11.65;10.45;;;12.10;99.90;;;;;;5042632;28;20045;-69
2021/05/04 07:29:47;;;;;;;11.32;10.25;;;12.10;99.90;;;;;;5049989;28;20379;-70
2021/05/04 07:32:17;;;;;;;10.55;9.45;;;12.20;99.90;;;;;;5049616;28;20041;-69
2021/05/04 07:34:49;;;;;;;11.43;10.35;;;12.20;99.90;;;;;;5033271;28;20445;-69
2021/05/04 07:37:17;;;;;;;11.48;10.48;;;12.30;99.90;;;;;;5030553;28;20074;-69
2021/05/04 07:39:43;;;;;;;11.75;10.75;;;12.40;99.90;;;;;;5040864;28;20075;-70
2021/05/04 07:42:11;;;;;;;11.30;10.30;;;12.50;99.90;;;;;;5049876;28;20048;-69
2021/05/04 07:44:40;;;;;;;12.38;11.05;;;12.50;99.90;;;;;;5051338;28;20462;-69
2021/05/04 07:47:08;;;;;;;11.98;10.80;;;12.70;99.90;;;;;;5049947;28;20148;-69
2021/05/04 07:49:42;;;;;;;12.48;11.48;;;12.80;99.90;;;;;;5051074;28;20076;-68
2021/05/04 07:52:10;;;;;;;11.95;10.90;;;12.80;99.90;;;;;;5048441;28;20059;-69
2021/05/04 07:54:37;;;;;;;11.32;10.20;;;12.80;99.90;;;;;;5048140;28;20105;-68
2021/05/04 07:57:05;;;;;;;14.77;11.52;;;13.00;99.90;;;;;;5049413;28;20111;-68
2021/05/04 07:59:32;;;;;;;13.48;10.50;;;13.10;99.90;;;;;;5051038;28;20061;-68
2021/05/04 08:02:02;;;;;;;12.20;11.10;;;13.00;99.90;;;;;;5048868;28;20052;-69
2021/05/04 08:04:30;;;;;;;12.52;10.88;;;13.10;99.90;;;;;;5051144;28;20080;-69
2021/05/04 08:07:00;;;;;;;12.07;11.07;;;13.30;99.90;;;;;;5050119;28;20076;-69
2021/05/04 08:09:30;;;;;;;12.73;10.68;;;13.50;99.90;;;;;;5048437;28;20612;-69
2021/05/04 08:11:57;;;;;;;11.88;10.85;;;13.50;99.90;;;;;;5050363;28;20194;-69
2021/05/04 08:14:24;;;;;;;11.63;10.52;;;13.60;99.90;;;;;;5049731;28;20048;-69
2021/05/04 08:16:53;;;;;;;12.93;11.50;;;13.80;99.90;;;;;;5048944;28;20053;-70
2021/05/04 08:19:20;;;;;;;12.00;11.00;;;14.00;99.90;;;;;;5048953;28;21126;-70
2021/05/04 08:21:47;;;;;;;15.15;13.55;;;13.80;99.90;;;;;;5048326;28;20051;-68
2021/05/04 08:24:14;;;;;;;13.00;11.68;;;13.70;99.90;;;;;;5050409;28;20048;-70
2021/05/04 08:26:41;;;;;;;11.30;10.20;;;13.50;99.90;;;;;;5049224;28;20103;-68
2021/05/04 08:29:10;;;;;;;12.65;11.65;;;13.50;99.90;;;;;;5049540;28;20072;-69
2021/05/04 08:31:37;;;;;;;11.88;10.77;;;13.60;99.90;;;;;;5050301;28;20052;-69
2021/05/04 08:34:09;;;;;;;13.32;11.10;;;13.70;99.90;;;;;;5048765;28;20045;-69
2021/05/04 08:36:36;;;;;;;12.57;11.02;;;13.60;99.90;;;;;;5040892;28;20038;-69
2021/05/04 08:39:04;;;;;;;11.82;10.85;;;13.60;99.90;;;;;;5046654;28;20049;-68
2021/05/04 08:41:35;;;;;;;12.48;11.27;;;13.70;99.90;;;;;;5044938;28;20049;-68
2021/05/04 08:44:03;;;;;;;11.52;10.50;;;13.70;99.90;;;;;;5048441;28;20060;-69
2021/05/04 08:46:34;;;;;;;11.70;10.70;;;13.70;99.90;;;;;;5049787;28;20080;-68
2021/05/04 08:49:05;;;;;;;11.18;10.27;;;13.70;99.90;;;;;;5049254;28;20134;-69
2021/05/04 08:51:33;;;;;;;12.30;11.13;;;14.00;99.90;;;;;;5049885;28;20044;-68
2021/05/04 08:54:02;;;;;;;12.35;11.25;;;14.20;99.90;;;;;;5033121;28;20041;-68
2021/05/04 08:56:30;;;;;;;12.30;11.30;;;14.30;99.90;;;;;;5046339;28;20069;-70
2021/05/04 08:58:58;;;;;;;12.27;11.38;;;14.50;99.90;;;;;;5041451;28;20037;-70
2021/05/04 09:01:24;;;;;;;12.43;10.98;;;14.60;99.90;;;;;;5049333;28;20052;-69
2021/05/04 09:03:57;;;;;;;12.38;11.27;;;14.80;99.90;;;;;;5049969;28;20824;-68
2021/05/04 09:06:32;;;;;;;13.50;12.20;;;14.70;99.90;;;;;;5051552;28;20055;-69
2021/05/04 09:09:28;;;;;;;11.60;10.60;;;14.70;99.90;;;;;;5042490;28;20053;-69
2021/05/04 09:12:12;;;;;;;11.38;10.48;;;14.80;99.90;;;;;;5041637;28;20705;-69
2021/05/04 09:17:24;;;;;;;11.68;10.70;;;14.70;99.90;;;;;;5053885;28;20092;-68
2021/05/04 09:20:23;;;;;;;;;;;14.70;99.90;;;;;;5054100;28;20057;-68
2021/05/04 09:23:08;;;;;;;11.23;10.23;;;14.70;99.90;;;;;;5036453;28;19929;-69
2021/05/04 09:25:37;;;;;;;13.23;11.20;;;14.90;99.90;;;;;;5036235;28;20057;-69
2021/05/04 09:28:11;;;;;;;12.00;10.98;;;15.00;99.90;;;;;;5047698;28;20140;-69
2021/05/04 09:30:38;;;;;;;11.43;10.50;;;15.00;99.90;;;;;;5053345;28;20364;-69
2021/05/04 09:33:15;;;;;;;12.35;11.23;;;15.10;99.90;;;;;;5051789;28;20476;-69
2021/05/04 09:35:42;;;;;;;12.18;10.98;;;15.30;99.90;;;;;;5048460;28;20083;-68
2021/05/04 09:38:10;;;;;;;11.65;10.60;;;15.60;99.90;;;;;;5053281;28;20051;-68
2021/05/04 09:40:40;;;;;;;11.68;10.77;;;15.80;99.90;;;;;;5053991;28;20056;-68
2021/05/04 09:43:12;;;;;;;11.65;10.65;;;16.00;99.90;;;;;;5040852;28;20048;-70
2021/05/04 09:45:53;;;;;;;11.98;10.80;;;16.00;99.90;;;;;;5052083;28;20045;-68
2021/05/04 09:48:33;;;;;;;11.55;10.50;;;16.40;99.90;;;;;;5038466;28;20056;-68
2021/05/04 09:51:02;;;;;;;11.63;10.52;;;16.60;99.90;;;;;;5052729;28;20083;-68
2021/05/04 09:56:29;;;;;;;11.48;10.43;;;16.30;99.90;;;;;;5047993;28;20132;-68
2021/05/04 09:58:56;;;;;;;10.65;9.85;;;16.60;99.90;;;;;;5053016;28;20699;-68
2021/05/04 10:01:22;;;;;;;11.10;9.95;;;16.60;99.90;;;;;;5052501;28;20060;-69
2021/05/04 10:03:51;;;;;;;10.57;9.57;;;16.60;99.90;;;;;;5049758;28;20122;-69
2021/05/04 10:06:19;;;;;;;11.45;10.52;;;16.50;99.90;;;;;;5051137;28;20049;-68
2021/05/04 10:08:48;;;;;;;10.52;9.48;;;16.60;99.90;;;;;;5050886;28;20435;-68
2021/05/04 10:11:21;;;;;;;11.07;9.38;;;16.40;99.90;;;;;;5043833;28;20044;-68
2021/05/04 10:13:55;;;;;;;9.27;8.57;;;16.70;99.90;;;;;;5051142;28;20475;-69
2021/05/04 10:16:30;;;;;;;10.35;9.45;;;16.90;99.20;;;;;;5048832;28;20051;-68
2021/05/04 10:19:03;;;;;;;10.82;9.82;;;16.90;98.20;;;;;;5046624;28;20049;-69
2021/05/04 10:21:30;;;;;;;10.40;9.60;;;16.90;97.10;;;;;;5051250;28;20408;-69
2021/05/04 10:23:58;;;;;;;10.60;9.45;;;16.80;97.20;;;;;;5050636;28;20056;-70
2021/05/04 10:26:30;;;;;;;10.25;9.43;;;16.80;97.10;;;;;;5051907;28;20361;-69
2021/05/04 10:29:05;;;;;;;10.90;9.82;;;16.70;96.70;;;;;;5052611;28;20462;-70
2021/05/04 10:31:38;;;;;;;10.85;9.82;;;16.70;96.70;;;;;;5048234;28;20660;-69
2021/05/04 10:34:24;;;;;;;10.55;9.68;;;17.00;96.50;;;;;;5023218;28;20123;-69
2021/05/04 10:36:52;;;;;;;10.10;9.35;;;16.90;95.90;;;;;;5041258;28;20033;-69
2021/05/04 10:39:42;;;;;;;11.75;9.70;;;16.90;95.60;;;;;;5049791;28;20494;-70
2021/05/04 10:42:12;;;;;;;11.00;10.00;;;16.90;95.60;;;;;;5049661;28;20049;-70
2021/05/04 10:45:06;;;;;;;10.43;9.63;;;16.80;95.50;;;;;;5051580;28;20049;-70
2021/05/04 10:47:42;;;;;;;10.90;9.80;;;17.10;96.00;;;;;;5047404;28;20049;-69
2021/05/04 10:50:11;;;;;;;10.07;9.38;;;17.40;95.50;;;;;;5045558;28;20044;-70
2021/05/04 10:52:58;;;;;;;10.50;9.50;;;17.40;95.10;;;;;;5047940;28;20056;-69
2021/05/04 10:55:51;;;;;;;10.23;9.15;;;17.40;95.20;;;;;;5050657;28;20037;-70
2021/05/04 10:58:19;;;;;;;10.45;9.63;;;17.40;95.20;;;;;;5046657;28;20049;-70
2021/05/04 11:00:52;;;;;;;10.98;9.90;;;17.60;95.10;;;;;;5049273;28;20053;-69
2021/05/04 11:03:31;;;;;;;10.95;10.02;;;17.90;94.90;;;;;;5047039;28;20080;-69
2021/05/04 11:06:04;;;;;;;10.43;9.50;;;17.90;94.00;;;;;;5042549;28;20053;-70
2021/05/04 11:08:43;;;;;;;10.95;10.05;;;17.60;92.80;;;;;;5058565;28;20049;-70
2021/05/04 11:11:23;;;;;;;11.23;10.27;;;17.50;91.80;;;;;;5046883;28;20051;-70
2021/05/04 11:14:01;;;;;;;10.93;9.95;;;17.40;91.70;;;;;;5050236;28;20041;-70
2021/05/04 11:16:36;;;;;;;18.08;9.90;;;17.30;92.10;;;;;;5051526;28;20048;-70
2021/05/04 11:19:08;;;;;;;10.60;9.48;;;17.30;91.70;;;;;;5050978;28;20408;-73
2021/05/04 11:22:11;;;;;;;11.25;9.60;;;17.20;90.20;;;;;;5049911;28;20052;-70
2021/05/04 11:24:45;;;;;;;11.68;9.80;;;17.20;89.10;;;;;;5007063;28;20045;-71
2021/05/04 11:27:12;;;;;;;11.88;9.30;;;17.10;88.60;;;;;;5049686;28;20052;-71
2021/05/04 11:29:41;;;;;;;10.60;9.50;;;17.00;89.10;;;;;;5052239;28;20511;-71
2021/05/04 11:32:16;;;;;;;11.52;9.13;;;17.10;88.10;;;;;;5051267;28;20045;-70
2021/05/04 11:34:50;;;;;;;11.15;9.27;;;17.10;88.20;;;;;;5049733;28;20139;-70
2021/05/04 11:37:20;;;;;;;10.38;9.48;;;17.00;87.10;;;;;;5049576;28;20053;-70
2021/05/04 11:40:02;;;;;;;12.48;9.50;;;16.90;87.30;;;;;;5040496;28;20045;-69
2021/05/04 11:42:37;;;;;;;10.20;9.25;;;16.90;86.90;;;;;;5055197;28;20056;-71
2021/05/04 11:45:22;;;;;;;14.07;9.27;;;16.80;86.90;;;;;;5049129;28;20483;-69
2021/05/04 11:48:03;;;;;;;12.77;9.57;;;17.00;87.20;;;;;;5051613;28;20041;-69
2021/05/04 11:50:33;;;;;;;16.60;9.52;;;16.80;86.60;;;;;;5050984;28;20533;-69
2021/05/04 11:53:05;;;;;;;10.85;9.82;;;16.90;86.30;;;;;;5050819;28;20485;-71
2021/05/04 11:55:34;;;;;;;10.98;9.88;;;16.80;85.10;;;;;;5048784;28;20037;-69
2021/05/04 11:58:06;;;;;;;10.68;9.63;;;17.00;84.80;;;;;;5048041;28;20422;-69
2021/05/04 12:00:36;;;;;;;10.95;9.85;;;16.90;84.30;;;;;;5048886;28;20106;-69
2021/05/04 12:03:07;;;;;;;10.57;9.48;;;16.80;84.10;;;;;;5047417;28;20052;-70
2021/05/04 12:05:35;;;;;;;9.95;9.15;;;16.80;84.00;;;;;;5049626;28;20098;-70
2021/05/04 12:08:03;;;;;;;10.30;9.50;;;16.80;84.80;;;;;;5047604;28;20376;-71
2021/05/04 12:10:50;;;;;;;10.05;9.38;;;16.80;85.30;;;;;;5045503;28;20442;-69
2021/05/04 12:13:37;;;;;;;10.20;9.23;;;17.00;85.40;;;;;;5043212;28;20048;-70
2021/05/04 12:16:06;;;;;;;10.55;9.50;;;17.10;86.10;;;;;;5049474;28;20045;-71
2021/05/04 12:18:36;;;;;;;11.10;10.05;;;17.10;86.60;;;;;;5049166;28;20049;-71
2021/05/04 12:21:10;;;;;;;9.85;9.07;;;17.00;86.40;;;;;;5060003;28;20077;-69
2021/05/04 12:23:41;;;;;;;13.27;10.30;;;16.80;85.90;;;;;;5048745;28;20049;-71
2021/05/04 12:26:18;;;;;;;10.90;9.80;;;16.80;85.60;;;;;;5044669;28;20042;-70
2021/05/04 12:28:56;;;;;;;11.07;9.90;;;16.70;85.70;;;;;;5048938;28;20033;-70
2021/05/04 12:31:31;;;;;;;13.07;9.82;;;16.60;86.30;;;;;;5053003;28;20080;-70
2021/05/04 12:33:59;;;;;;;10.80;9.80;;;16.60;86.90;;;;;;5049278;28;20492;-69
2021/05/04 12:36:39;;;;;;;10.60;9.60;;;16.60;86.40;;;;;;5044492;28;20056;-69
2021/05/04 12:39:12;;;;;;;10.43;9.63;;;16.60;86.40;;;;;;5050350;28;20391;-70
2021/05/04 12:41:47;;;;;;;10.82;9.90;;;16.70;87.30;;;;;;5049023;28;20064;-70
2021/05/04 12:46:53;;;;;;;10.73;9.57;;;16.50;93.10;;;;;;5051372;28;20079;-70
2021/05/04 12:49:31;;;;;;;12.45;10.52;;;16.30;94.00;;;;;;5052796;28;20455;-71
2021/05/04 12:51:58;;;;;;;10.68;9.77;;;16.00;94.70;;;;;;5053328;28;20049;-70
2021/05/04 12:54:25;;;;;;;11.57;10.68;;;15.80;95.30;;;;;;5051945;28;20045;-69